createdAt,value
2022-09-12T00:00:12.005Z,17.90
2022-09-12T00:01:13.298Z,17.85
2022-09-12T00:01:55.139Z,18.17
2022-09-12T00:02:36.952Z,17.95
2022-09-12T00:03:18.587Z,17.48
2022-09-12T00:04:01.968Z,17.52
2022-09-12T00:04:43.587Z,17.70
2022-09-12T00:05:26.478Z,17.30
2022-09-12T00:06:20.427Z,17.23
2022-09-12T00:07:04.205Z,17.00
2022-09-12T00:07:45.885Z,17.90
2022-09-12T00:08:27.561Z,17.20
2022-09-12T00:09:12.067Z,16.42
2022-09-12T00:09:53.691Z,17.42
2022-09-12T00:10:41.378Z,18.07
2022-09-12T00:11:23.606Z,17.50
2022-09-12T00:12:05.706Z,17.80
2022-09-12T00:12:47.437Z,17.63
2022-09-12T00:13:29.051Z,17.67
2022-09-12T00:14:17.484Z,18.08
2022-09-12T00:14:59.131Z,16.45
2022-09-12T00:15:42.432Z,17.27
2022-09-12T00:16:26.035Z,16.23
2022-09-12T00:17:07.682Z,18.35
2022-09-12T00:17:49.336Z,18.63
2022-09-12T00:18:32.003Z,17.80
2022-09-12T00:19:13.950Z,17.88
2022-09-12T00:19:56.022Z,18.83
2022-09-12T00:20:42.813Z,18.65
2022-09-12T00:21:24.856Z,19.05
2022-09-12T00:22:06.516Z,19.35
2022-09-12T00:22:48.186Z,17.98
2022-09-12T00:23:31.425Z,18.80
2022-09-12T00:24:13.096Z,18.20
2022-09-12T00:24:54.725Z,17.90
2022-09-12T00:25:42.466Z,18.40
2022-09-12T00:26:24.530Z,17.88
2022-09-12T00:27:06.350Z,18.95
2022-09-12T00:27:48.009Z,18.90
2022-09-12T00:28:29.636Z,17.52
2022-09-12T00:29:16.663Z,18.20
2022-09-12T00:29:58.323Z,19.23
2022-09-12T00:30:50.027Z,18.92
2022-09-12T00:31:32.176Z,18.17
2022-09-12T00:32:13.891Z,18.65
2022-09-12T00:32:55.519Z,20.10
2022-09-12T00:33:37.189Z,19.73
2022-09-12T00:34:18.834Z,18.52
2022-09-12T00:35:02.692Z,17.88
2022-09-12T00:35:53.036Z,18.55
2022-09-12T00:36:37.037Z,19.52
2022-09-12T00:37:18.709Z,18.88
2022-09-12T00:38:00.335Z,19.08
2022-09-12T00:38:43.293Z,18.20
2022-09-12T00:39:24.950Z,18.77
2022-09-12T00:40:07.206Z,19.00
2022-09-12T00:40:49.453Z,17.90
2022-09-12T00:41:34.856Z,17.35
2022-09-12T00:42:16.519Z,19.45
2022-09-12T00:42:59.014Z,18.85
2022-09-12T00:43:42.954Z,18.55
2022-09-12T00:44:24.597Z,19.13
2022-09-12T00:45:06.785Z,18.83
2022-09-12T00:45:48.503Z,18.83
2022-09-12T00:46:55.487Z,19.75
2022-09-12T00:47:37.732Z,18.05
2022-09-12T00:48:30.860Z,18.65
2022-09-12T00:49:20.765Z,19.80
2022-09-12T00:50:12.519Z,18.90
2022-09-12T00:50:54.243Z,18.45
2022-09-12T00:51:37.492Z,19.13
2022-09-12T00:52:25.413Z,18.92
2022-09-12T00:53:08.585Z,17.75
2022-09-12T00:53:52.902Z,19.08
2022-09-12T00:54:49.883Z,18.60
2022-09-12T00:55:45.401Z,19.23
2022-09-12T00:56:28.041Z,18.90
2022-09-12T00:57:11.933Z,18.67
2022-09-12T00:57:58.765Z,19.00
2022-09-12T00:58:53.911Z,19.77
2022-09-12T00:59:41.401Z,19.10
2022-09-12T01:00:25.558Z,18.77
2022-09-12T01:01:07.330Z,19.25
2022-09-12T01:01:51.608Z,18.60
2022-09-12T01:02:33.437Z,19.17
2022-09-12T01:03:19.008Z,17.92
2022-09-12T01:04:01.837Z,18.60
2022-09-12T01:04:44.565Z,18.95
2022-09-12T01:05:28.263Z,19.48
2022-09-12T01:06:27.035Z,18.40
2022-09-12T01:07:09.542Z,19.10
2022-09-12T01:07:52.312Z,18.85
2022-09-12T01:08:37.389Z,18.70
2022-09-12T01:09:22.686Z,19.45
2022-09-12T01:10:06.210Z,20.00
2022-09-12T01:10:48.873Z,19.00
2022-09-12T01:11:32.671Z,19.00
2022-09-12T01:12:15.911Z,20.10
2022-09-12T01:13:00.657Z,20.30
2022-09-12T01:13:43.946Z,18.67
2022-09-12T01:14:25.738Z,19.75
2022-09-12T01:15:08.010Z,20.42
2022-09-12T01:15:49.654Z,20.50
2022-09-12T01:16:31.485Z,20.08
2022-09-12T01:17:20.167Z,19.50
2022-09-12T01:18:40.354Z,18.55
2022-09-12T01:19:22.021Z,18.90
2022-09-12T01:20:34.505Z,18.55
2022-09-12T01:21:34.878Z,18.70
2022-09-12T01:22:36.645Z,18.25
2022-09-12T01:24:02.646Z,18.17
2022-09-12T01:25:07.683Z,19.55
2022-09-12T01:26:08.125Z,19.88
2022-09-12T01:27:15.461Z,19.10
2022-09-12T01:28:18.417Z,18.25
2022-09-12T01:29:21.877Z,19.00
2022-09-12T01:30:21.776Z,19.35
2022-09-12T01:31:17.815Z,20.02
2022-09-12T01:32:13.671Z,19.45
2022-09-12T01:33:47.643Z,19.48
2022-09-12T01:34:29.230Z,18.25
2022-09-12T01:35:23.807Z,19.33
2022-09-12T01:36:52.841Z,18.80
2022-09-12T01:37:41.768Z,19.55
2022-09-12T01:38:23.342Z,18.67
2022-09-12T01:39:51.080Z,19.83
2022-09-12T01:40:49.130Z,19.63
2022-09-12T01:41:54.517Z,18.70
2022-09-12T01:42:41.990Z,19.90
2022-09-12T01:43:26.636Z,18.92
2022-09-12T01:44:19.024Z,18.00
2022-09-12T01:45:23.193Z,19.73
2022-09-12T01:46:18.063Z,19.10
2022-09-12T01:47:12.921Z,19.08
2022-09-12T01:48:03.133Z,19.08
2022-09-12T01:49:02.201Z,19.00
2022-09-12T01:49:56.143Z,19.60
2022-09-12T01:50:52.534Z,20.45
2022-09-12T01:52:07.770Z,19.15
2022-09-12T01:52:57.141Z,18.35
2022-09-12T01:53:44.219Z,19.20
2022-09-12T01:54:36.548Z,20.17
2022-09-12T01:55:27.433Z,20.23
2022-09-12T01:56:15.514Z,19.85
2022-09-12T01:57:01.582Z,20.33
2022-09-12T01:58:03.021Z,19.95
2022-09-12T01:58:57.496Z,19.50
2022-09-12T01:59:54.655Z,19.35
2022-09-12T02:01:01.810Z,21.33
2022-09-12T02:01:54.895Z,19.58
2022-09-12T02:02:52.914Z,19.08
2022-09-12T02:03:44.955Z,19.20
2022-09-12T02:04:34.421Z,19.90
2022-09-12T02:05:28.959Z,21.17
2022-09-12T02:06:23.532Z,19.65
2022-09-12T02:07:35.894Z,19.20
2022-09-12T02:08:22.184Z,18.90
2022-09-12T02:09:09.973Z,20.35
2022-09-12T02:10:02.244Z,20.23
2022-09-12T02:10:49.995Z,19.92
2022-09-12T02:11:35.388Z,19.30
2022-09-12T02:12:23.005Z,19.60
2022-09-12T02:13:16.792Z,18.93
2022-09-12T02:14:09.270Z,19.23
2022-09-12T02:14:57.230Z,19.90
2022-09-12T02:15:46.107Z,19.80
2022-09-12T02:16:40.842Z,19.70
2022-09-12T02:17:26.218Z,17.77
2022-09-12T02:18:12.290Z,19.52
2022-09-12T02:18:59.839Z,19.50
2022-09-12T02:19:48.030Z,19.00
2022-09-12T02:20:49.215Z,19.98
2022-09-12T02:21:33.009Z,19.48
2022-09-12T02:22:19.798Z,19.65
2022-09-12T02:23:03.659Z,19.48
2022-09-12T02:23:49.017Z,20.58
2022-09-12T02:24:39.465Z,19.95
2022-09-12T02:25:22.118Z,19.08
2022-09-12T02:26:11.017Z,19.10
2022-09-12T02:27:06.052Z,19.15
2022-09-12T02:27:50.546Z,20.50
2022-09-12T02:28:38.074Z,20.33
2022-09-12T02:29:19.719Z,20.77
2022-09-12T02:30:01.629Z,20.40
2022-09-12T02:31:11.448Z,20.35
2022-09-12T02:32:04.630Z,21.00
2022-09-12T02:33:12.601Z,19.90
2022-09-12T02:34:22.058Z,19.92
2022-09-12T02:35:10.985Z,20.08
2022-09-12T02:36:23.957Z,18.98
2022-09-12T02:37:21.218Z,20.73
2022-09-12T02:38:24.547Z,19.42
2022-09-12T02:39:06.551Z,19.10
2022-09-12T02:39:48.443Z,19.00
2022-09-12T02:40:31.007Z,20.33
2022-09-12T02:41:15.973Z,20.35
2022-09-12T02:42:01.804Z,19.08
2022-09-12T02:42:43.590Z,18.20
2022-09-12T02:43:25.322Z,18.55
2022-09-12T02:44:07.050Z,20.30
2022-09-12T02:44:50.039Z,19.90
2022-09-12T02:45:34.324Z,18.95
2022-09-12T02:46:25.269Z,19.65
2022-09-12T02:47:14.117Z,18.88
2022-09-12T02:48:08.428Z,19.60
2022-09-12T02:48:50.142Z,19.38
2022-09-12T02:49:31.903Z,19.85
2022-09-12T02:50:14.169Z,19.10
2022-09-12T02:50:56.691Z,19.45
2022-09-12T02:51:38.579Z,19.45
2022-09-12T02:52:20.446Z,20.35
2022-09-12T02:53:04.925Z,18.83
2022-09-12T02:53:46.598Z,19.50
2022-09-12T02:54:28.896Z,19.85
2022-09-12T02:55:11.634Z,19.30
2022-09-12T02:55:53.590Z,19.55
2022-09-12T02:56:35.397Z,18.88
2022-09-12T02:57:22.651Z,19.33
2022-09-12T02:58:08.626Z,18.73
2022-09-12T02:58:50.512Z,17.90
2022-09-12T02:59:32.163Z,17.77
2022-09-12T03:00:14.286Z,17.92
2022-09-12T03:01:30.069Z,18.15
2022-09-12T03:02:11.731Z,18.25
2022-09-12T03:03:11.979Z,18.88
2022-09-12T03:04:29.774Z,18.50
2022-09-12T03:05:23.361Z,17.88
2022-09-12T03:06:13.915Z,17.00
2022-09-12T03:07:18.198Z,18.30
2022-09-12T03:08:24.930Z,17.67
2022-09-12T03:09:19.134Z,19.23
2022-09-12T03:10:22.921Z,17.83
2022-09-12T03:11:07.203Z,18.00
2022-09-12T03:12:05.593Z,17.67
2022-09-12T03:13:12.518Z,17.70
2022-09-12T03:14:10.562Z,18.23
2022-09-12T03:15:19.714Z,18.40
2022-09-12T03:16:28.055Z,16.75
2022-09-12T03:17:57.168Z,18.25
2022-09-12T03:19:05.066Z,17.60
2022-09-12T03:19:59.018Z,18.58
2022-09-12T03:20:59.534Z,18.35
2022-09-12T03:21:53.317Z,18.00
2022-09-12T03:23:04.283Z,17.35
2022-09-12T03:24:08.218Z,16.75
2022-09-12T03:24:56.115Z,16.75
2022-09-12T03:25:45.333Z,17.58
2022-09-12T03:26:42.527Z,17.27
2022-09-12T03:27:30.058Z,16.77
2022-09-12T03:28:15.530Z,17.27
2022-09-12T03:28:59.130Z,17.55
2022-09-12T03:29:41.411Z,16.92
2022-09-12T03:30:23.210Z,16.90
2022-09-12T03:31:16.759Z,18.30
2022-09-12T03:32:01.881Z,18.05
2022-09-12T03:32:49.234Z,18.58
2022-09-12T03:33:30.850Z,17.60
2022-09-12T03:34:13.068Z,17.15
2022-09-12T03:34:54.691Z,18.75
2022-09-12T03:35:36.353Z,18.88
2022-09-12T03:36:23.002Z,17.20
2022-09-12T03:37:05.316Z,17.92
2022-09-12T03:37:48.266Z,17.05
2022-09-12T03:38:29.893Z,18.02
2022-09-12T03:39:11.530Z,18.15
2022-09-12T03:39:53.168Z,18.02
2022-09-12T03:40:35.788Z,17.88
2022-09-12T03:41:20.750Z,17.80
2022-09-12T03:42:02.384Z,18.25
2022-09-12T03:42:44.042Z,17.05
2022-09-12T03:43:25.795Z,18.25
2022-09-12T03:44:07.869Z,18.25
2022-09-12T03:44:49.501Z,17.63
2022-09-12T03:45:31.299Z,18.60
2022-09-12T03:46:14.689Z,18.30
2022-09-12T03:46:56.354Z,17.65
2022-09-12T03:47:38.016Z,17.13
2022-09-12T03:48:21.196Z,18.38
2022-09-12T03:49:02.986Z,17.80
2022-09-12T03:49:44.614Z,17.27
2022-09-12T03:50:26.394Z,16.95
2022-09-12T03:51:09.960Z,16.80
2022-09-12T03:51:51.642Z,17.70
2022-09-12T03:52:36.504Z,18.65
2022-09-12T03:53:18.187Z,16.42
2022-09-12T03:53:59.874Z,16.90
2022-09-12T03:54:41.562Z,18.15
2022-09-12T03:55:23.269Z,17.05
2022-09-12T03:56:09.810Z,16.25
2022-09-12T03:56:51.442Z,17.20
2022-09-12T03:57:33.128Z,17.23
2022-09-12T03:58:14.757Z,17.13
2022-09-12T03:58:56.589Z,18.27
2022-09-12T03:59:38.345Z,17.38
2022-09-12T04:00:20.105Z,16.67
2022-09-12T04:01:07.219Z,17.58
2022-09-12T04:01:48.928Z,17.88
2022-09-12T04:02:33.249Z,17.83
2022-09-12T04:03:15.100Z,17.80
2022-09-12T04:03:56.731Z,17.48
2022-09-12T04:04:38.756Z,17.50
2022-09-12T04:05:20.412Z,17.20
2022-09-12T04:06:02.041Z,17.40
2022-09-12T04:06:44.069Z,16.95
2022-09-12T04:07:25.767Z,17.60
2022-09-12T04:08:07.474Z,17.35
2022-09-12T04:08:50.803Z,19.15
2022-09-12T04:09:32.436Z,17.88
2022-09-12T04:10:16.238Z,17.10
2022-09-12T04:11:24.464Z,17.55
2022-09-12T04:12:06.591Z,18.50
2022-09-12T04:12:48.229Z,18.38
2022-09-12T04:13:29.883Z,17.90
2022-09-12T04:14:11.532Z,17.60
2022-09-12T04:14:53.158Z,17.38
2022-09-12T04:15:34.834Z,17.25
2022-09-12T04:16:17.512Z,15.98
2022-09-12T04:16:59.516Z,17.08
2022-09-12T04:17:41.162Z,18.20
2022-09-12T04:18:22.793Z,17.60
2022-09-12T04:19:06.552Z,18.35
2022-09-12T04:19:48.186Z,17.80
2022-09-12T04:20:29.905Z,18.60
2022-09-12T04:21:17.242Z,16.70
2022-09-12T04:21:58.923Z,17.10
2022-09-12T04:22:40.622Z,16.90
2022-09-12T04:23:22.598Z,17.73
2022-09-12T04:24:04.374Z,17.35
2022-09-12T04:24:46.013Z,17.20
2022-09-12T04:25:28.292Z,17.85
2022-09-12T04:26:10.591Z,16.73
2022-09-12T04:26:52.283Z,16.48
2022-09-12T04:27:34.172Z,17.10
2022-09-12T04:28:15.876Z,17.17
2022-09-12T04:28:58.138Z,16.75
2022-09-12T04:29:39.768Z,16.45
2022-09-12T04:30:21.526Z,16.70
2022-09-12T04:31:09.351Z,17.20
2022-09-12T04:31:51.047Z,15.93
2022-09-12T04:32:32.694Z,16.77
2022-09-12T04:33:14.696Z,16.42
2022-09-12T04:34:00.714Z,16.38
2022-09-12T04:34:43.538Z,16.55
2022-09-12T04:35:25.470Z,17.25
2022-09-12T04:36:10.296Z,16.38
2022-09-12T04:36:51.923Z,16.50
2022-09-12T04:37:33.590Z,15.15
2022-09-12T04:38:15.267Z,16.23
2022-09-12T04:38:56.955Z,16.08
2022-09-12T04:39:38.757Z,16.35
2022-09-12T04:40:20.871Z,17.05
2022-09-12T04:41:15.398Z,16.48
2022-09-12T04:41:57.019Z,15.48
2022-09-12T04:42:38.641Z,15.82
2022-09-12T04:43:20.272Z,15.88
2022-09-12T04:44:05.622Z,15.82
2022-09-12T04:44:48.563Z,16.33
2022-09-12T04:45:30.668Z,15.90
2022-09-12T04:46:15.276Z,15.32
2022-09-12T04:46:57.167Z,15.18
2022-09-12T04:47:38.931Z,15.57
2022-09-12T04:48:20.581Z,16.17
2022-09-12T04:49:02.648Z,15.55
2022-09-12T04:49:44.259Z,14.77
2022-09-12T04:50:26.242Z,15.02
2022-09-12T04:51:08.037Z,16.00
2022-09-12T04:51:52.211Z,16.48
2022-09-12T04:52:33.869Z,15.20
2022-09-12T04:53:15.483Z,15.27
2022-09-12T04:54:03.437Z,15.05
2022-09-12T04:54:47.729Z,15.57
2022-09-12T04:55:29.437Z,16.63
2022-09-12T04:56:12.117Z,15.73
2022-09-12T04:56:54.890Z,15.27
2022-09-12T04:57:36.671Z,15.45
2022-09-12T04:58:18.296Z,15.10
2022-09-12T04:59:01.365Z,15.52
2022-09-12T04:59:43.211Z,15.00
2022-09-12T05:00:24.882Z,15.27
2022-09-12T05:01:17.559Z,14.85
2022-09-12T05:01:59.508Z,16.00
2022-09-12T05:02:44.314Z,15.05
2022-09-12T05:03:25.937Z,14.57
2022-09-12T05:04:09.619Z,14.77
2022-09-12T05:04:52.606Z,15.73
2022-09-12T05:05:36.860Z,15.38
2022-09-12T05:06:21.283Z,14.85
2022-09-12T05:07:05.743Z,14.60
2022-09-12T05:07:47.375Z,14.65
2022-09-12T05:08:29.330Z,15.88
2022-09-12T05:09:14.053Z,15.88
2022-09-12T05:09:55.696Z,15.43
2022-09-12T05:10:38.363Z,16.35
2022-09-12T05:11:25.569Z,15.40
2022-09-12T05:12:12.144Z,14.85
2022-09-12T05:12:53.813Z,13.80
2022-09-12T05:13:35.523Z,14.25
2022-09-12T05:14:17.178Z,14.88
2022-09-12T05:14:58.857Z,15.40
2022-09-12T05:15:40.558Z,15.05
2022-09-12T05:16:23.498Z,14.48
2022-09-12T05:17:05.992Z,14.38
2022-09-12T05:17:50.864Z,14.95
2022-09-12T05:18:36.467Z,14.73
2022-09-12T05:19:18.414Z,15.70
2022-09-12T05:20:00.665Z,15.27
2022-09-12T05:20:42.297Z,15.70
2022-09-12T05:21:25.094Z,15.00
2022-09-12T05:22:06.869Z,13.80
2022-09-12T05:22:48.521Z,14.98
2022-09-12T05:23:30.893Z,15.20
2022-09-12T05:24:12.614Z,14.32
2022-09-12T05:24:54.349Z,14.82
2022-09-12T05:25:35.983Z,15.18
2022-09-12T05:26:18.997Z,14.30
2022-09-12T05:27:00.719Z,15.35
2022-09-12T05:27:46.398Z,13.85
2022-09-12T05:28:35.584Z,14.40
2022-09-12T05:29:17.358Z,13.93
2022-09-12T05:29:59.063Z,15.23
2022-09-12T05:30:40.744Z,15.32
2022-09-12T05:31:25.123Z,15.07
2022-09-12T05:32:06.828Z,14.35
2022-09-12T05:32:49.598Z,14.90
2022-09-12T05:33:32.267Z,13.80
2022-09-12T05:34:14.146Z,14.10
2022-09-12T05:34:55.910Z,14.00
2022-09-12T05:35:38.301Z,14.38
2022-09-12T05:36:25.079Z,14.65
2022-09-12T05:37:06.774Z,14.30
2022-09-12T05:37:49.384Z,13.40
2022-09-12T05:38:31.124Z,13.65
2022-09-12T05:39:12.784Z,14.05
2022-09-12T05:39:54.548Z,14.65
2022-09-12T05:40:36.196Z,14.77
2022-09-12T05:41:25.745Z,13.40
2022-09-12T05:42:07.542Z,14.10
2022-09-12T05:42:49.182Z,15.15
2022-09-12T05:43:30.853Z,14.43
2022-09-12T05:44:14.172Z,13.75
2022-09-12T05:44:55.819Z,14.95
2022-09-12T05:45:37.512Z,16.00
2022-09-12T05:46:28.688Z,15.00
2022-09-12T05:47:12.317Z,13.88
2022-09-12T05:47:54.313Z,12.85
2022-09-12T05:48:37.310Z,13.57
2022-09-12T05:49:19.012Z,14.82
2022-09-12T05:50:00.641Z,14.80
2022-09-12T05:50:42.425Z,13.57
2022-09-12T05:51:31.636Z,15.30
2022-09-12T05:52:13.391Z,14.95
2022-09-12T05:52:55.082Z,14.80
2022-09-12T05:53:37.972Z,14.98
2022-09-12T05:54:20.662Z,14.90
2022-09-12T05:55:02.633Z,15.38
2022-09-12T05:55:44.269Z,14.93
2022-09-12T05:56:28.337Z,15.68
2022-09-12T05:57:10.136Z,14.73
2022-09-12T05:57:52.005Z,14.48
2022-09-12T05:58:35.655Z,14.55
2022-09-12T05:59:19.988Z,14.48
2022-09-12T06:00:02.141Z,14.02
2022-09-12T06:00:43.774Z,14.40
2022-09-12T06:01:27.304Z,13.70
2022-09-12T06:02:11.015Z,13.25
2022-09-12T06:02:53.433Z,14.13
2022-09-12T06:03:37.280Z,14.57
2022-09-12T06:04:18.966Z,13.50
2022-09-12T06:05:03.019Z,13.45
2022-09-12T06:05:47.643Z,13.82
2022-09-12T06:06:35.918Z,13.43
2022-09-12T06:07:17.559Z,13.43
2022-09-12T06:07:59.170Z,13.73
2022-09-12T06:08:43.813Z,13.57
2022-09-12T06:09:25.689Z,13.50
2022-09-12T06:10:07.540Z,13.85
2022-09-12T06:10:49.496Z,14.05
2022-09-12T06:11:33.291Z,14.13
2022-09-12T06:12:14.912Z,14.30
2022-09-12T06:12:56.544Z,14.25
2022-09-12T06:13:42.554Z,14.20
2022-09-12T06:14:24.262Z,13.05
2022-09-12T06:15:07.987Z,14.43
2022-09-12T06:15:50.049Z,15.10
2022-09-12T06:16:35.641Z,14.75
2022-09-12T06:17:17.494Z,14.27
2022-09-12T06:17:59.131Z,14.10
2022-09-12T06:18:41.608Z,14.00
2022-09-12T06:19:24.965Z,14.60
2022-09-12T06:20:07.122Z,14.30
2022-09-12T06:20:48.834Z,13.52
2022-09-12T06:21:35.009Z,14.38
2022-09-12T06:22:17.973Z,13.90
2022-09-12T06:22:59.650Z,13.70
2022-09-12T06:23:41.630Z,13.48
2022-09-12T06:24:23.322Z,13.45
2022-09-12T06:25:05.293Z,13.93
2022-09-12T06:25:50.094Z,13.77
2022-09-12T06:26:31.761Z,13.65
2022-09-12T06:27:13.487Z,13.57
2022-09-12T06:27:55.190Z,14.43
2022-09-12T06:28:39.999Z,14.88
2022-09-12T06:29:21.926Z,14.57
2022-09-12T06:30:04.023Z,14.25
2022-09-12T06:30:45.748Z,14.07
2022-09-12T06:31:30.463Z,14.60
2022-09-12T06:32:12.098Z,13.93
2022-09-12T06:32:53.778Z,14.73
2022-09-12T06:33:37.413Z,14.90
2022-09-12T06:34:19.922Z,15.35
2022-09-12T06:35:01.638Z,14.60
2022-09-12T06:35:43.457Z,12.27
2022-09-12T06:36:31.531Z,13.27
2022-09-12T06:37:13.180Z,14.10
2022-09-12T06:37:55.318Z,14.60
2022-09-12T06:38:38.231Z,14.93
2022-09-12T06:39:22.184Z,14.15
2022-09-12T06:40:04.119Z,14.05
2022-09-12T06:40:48.459Z,13.80
2022-09-12T06:41:31.252Z,14.23
2022-09-12T06:42:14.772Z,15.75
2022-09-12T06:42:56.500Z,14.45
2022-09-12T06:43:39.731Z,14.93
2022-09-12T06:44:22.713Z,14.32
2022-09-12T06:45:04.640Z,13.70
2022-09-12T06:45:49.919Z,13.70
2022-09-12T06:46:31.670Z,14.60
2022-09-12T06:47:13.310Z,14.50
2022-09-12T06:47:55.547Z,14.63
2022-09-12T06:48:41.134Z,14.20
2022-09-12T06:49:23.517Z,14.98
2022-09-12T06:50:05.650Z,14.80
2022-09-12T06:51:02.077Z,14.48
2022-09-12T06:51:44.397Z,13.52
2022-09-12T06:52:29.193Z,14.35
2022-09-12T06:53:10.821Z,15.02
2022-09-12T06:53:55.746Z,15.65
2022-09-12T06:54:37.422Z,14.77
2022-09-12T06:55:21.734Z,14.68
2022-09-12T06:56:14.667Z,14.50
2022-09-12T06:56:56.286Z,15.07
2022-09-12T06:57:38.866Z,14.75
2022-09-12T06:58:20.518Z,14.07
2022-09-12T06:59:02.190Z,13.82
2022-09-12T06:59:43.893Z,14.25
2022-09-12T07:00:25.647Z,14.98
2022-09-12T07:01:13.429Z,14.77
2022-09-12T07:01:55.350Z,15.30
2022-09-12T07:02:37.124Z,15.50
2022-09-12T07:03:19.001Z,14.07
2022-09-12T07:04:03.808Z,15.27
2022-09-12T07:04:45.844Z,15.93
2022-09-12T07:05:28.081Z,14.23
2022-09-12T07:06:12.957Z,15.38
2022-09-12T07:06:54.605Z,14.98
2022-09-12T07:07:36.278Z,14.30
2022-09-12T07:08:17.914Z,14.15
2022-09-12T07:09:01.101Z,14.05
2022-09-12T07:09:42.818Z,14.95
2022-09-12T07:10:24.491Z,14.30
2022-09-12T07:11:26.133Z,13.95
2022-09-12T07:12:08.071Z,14.10
2022-09-12T07:12:49.703Z,14.73
2022-09-12T07:13:31.353Z,15.68
2022-09-12T07:14:14.356Z,14.63
2022-09-12T07:14:56.058Z,14.77
2022-09-12T07:15:39.486Z,14.45
2022-09-12T07:16:21.193Z,13.90
2022-09-12T07:17:02.884Z,13.88
2022-09-12T07:17:44.696Z,13.85
2022-09-12T07:18:27.209Z,14.00
2022-09-12T07:19:09.706Z,14.68
2022-09-12T07:19:54.131Z,15.30
2022-09-12T07:20:39.256Z,14.52
2022-09-12T07:21:21.313Z,13.93
2022-09-12T07:22:03.049Z,13.75
2022-09-12T07:22:44.699Z,14.43
2022-09-12T07:23:26.331Z,15.60
2022-09-12T07:24:10.158Z,14.05
2022-09-12T07:24:53.586Z,14.05
2022-09-12T07:25:35.288Z,14.70
2022-09-12T07:26:17.100Z,13.75
2022-09-12T07:26:58.858Z,13.50
2022-09-12T07:27:40.574Z,14.55
2022-09-12T07:28:22.332Z,15.02
2022-09-12T07:29:32.295Z,14.00
2022-09-12T07:30:07.778Z,13.90
2022-09-12T07:30:49.438Z,13.68
2022-09-12T07:31:31.180Z,14.10
2022-09-12T07:32:13.350Z,14.40
2022-09-12T07:32:56.838Z,14.05
2022-09-12T07:33:39.627Z,15.27
2022-09-12T07:34:21.319Z,16.08
2022-09-12T07:35:03.197Z,15.38
2022-09-12T07:35:44.849Z,15.18
2022-09-12T07:36:26.553Z,15.73
2022-09-12T07:37:08.261Z,15.68
2022-09-12T07:37:49.924Z,14.95
2022-09-12T07:38:31.675Z,14.98
2022-09-12T07:39:13.446Z,14.45
2022-09-12T07:39:55.630Z,14.25
2022-09-12T07:40:37.283Z,15.13
2022-09-12T07:41:20.950Z,15.73
2022-09-12T07:42:02.828Z,14.52
2022-09-12T07:42:44.623Z,14.77
2022-09-12T07:43:26.310Z,15.15
2022-09-12T07:44:08.043Z,15.10
2022-09-12T07:44:50.921Z,14.50
2022-09-12T07:45:32.590Z,14.82
2022-09-12T07:46:14.901Z,15.55
2022-09-12T07:46:56.654Z,15.30
2022-09-12T07:47:38.358Z,14.60
2022-09-12T07:48:20.034Z,14.02
2022-09-12T07:49:01.823Z,14.40
2022-09-12T07:49:44.028Z,14.75
2022-09-12T07:50:25.745Z,14.48
2022-09-12T07:51:10.370Z,13.02
2022-09-12T07:51:52.039Z,13.80
2022-09-12T07:52:33.666Z,13.90
2022-09-12T07:53:15.917Z,14.20
2022-09-12T07:53:58.299Z,13.80
2022-09-12T07:54:40.036Z,13.20
2022-09-12T07:55:22.555Z,14.20
2022-09-12T07:56:05.484Z,13.85
2022-09-12T07:56:47.183Z,13.05
2022-09-12T07:57:29.056Z,13.25
2022-09-12T07:58:10.786Z,14.25
2022-09-12T07:58:52.439Z,13.68
2022-09-12T07:59:52.052Z,14.32
2022-09-12T08:00:37.746Z,13.98
2022-09-12T08:01:23.210Z,13.43
2022-09-12T08:02:04.952Z,13.18
2022-09-12T08:02:51.967Z,12.90
2022-09-12T08:03:33.722Z,13.02
2022-09-12T08:04:15.842Z,14.15
2022-09-12T08:04:57.492Z,13.90
2022-09-12T08:05:39.160Z,14.07
2022-09-12T08:06:25.221Z,14.45
2022-09-12T08:07:06.918Z,14.23
2022-09-12T08:07:49.705Z,13.63
2022-09-12T08:08:31.470Z,13.40
2022-09-12T08:09:15.278Z,13.48
2022-09-12T08:09:57.539Z,14.45
2022-09-12T08:10:39.306Z,14.20
2022-09-12T08:11:22.499Z,13.43
2022-09-12T08:12:04.382Z,13.60
2022-09-12T08:12:46.040Z,14.15
2022-09-12T08:13:30.923Z,14.30
2022-09-12T08:14:12.648Z,14.68
2022-09-12T08:14:54.414Z,15.38
2022-09-12T08:15:36.146Z,13.40
2022-09-12T08:16:22.078Z,14.30
2022-09-12T08:17:03.797Z,13.02
2022-09-12T08:17:45.525Z,14.18
2022-09-12T08:18:29.371Z,15.00
2022-09-12T08:19:12.019Z,14.50
2022-09-12T08:19:53.683Z,14.32
2022-09-12T08:20:35.372Z,14.13
2022-09-12T08:21:20.051Z,14.20
2022-09-12T08:22:02.812Z,14.73
2022-09-12T08:22:44.654Z,14.23
2022-09-12T08:23:28.600Z,13.30
2022-09-12T08:24:13.309Z,13.77
2022-09-12T08:24:54.950Z,14.07
2022-09-12T08:25:36.671Z,13.18
2022-09-12T08:26:18.424Z,14.02
2022-09-12T08:27:00.079Z,14.40
2022-09-12T08:27:43.079Z,15.20
2022-09-12T08:28:25.850Z,14.75
2022-09-12T08:29:07.490Z,14.20
2022-09-12T08:29:49.281Z,13.98
2022-09-12T08:30:31.008Z,14.77
2022-09-12T08:31:16.577Z,15.07
2022-09-12T08:31:58.530Z,15.02
2022-09-12T08:32:40.233Z,14.18
2022-09-12T08:33:22.385Z,14.48
2022-09-12T08:34:05.639Z,14.18
2022-09-12T08:34:47.322Z,15.25
2022-09-12T08:35:29.006Z,14.13
2022-09-12T08:36:12.080Z,13.82
2022-09-12T08:36:54.571Z,13.30
2022-09-12T08:37:36.214Z,14.35
2022-09-12T08:38:19.611Z,14.30
2022-09-12T08:39:06.637Z,13.90
2022-09-12T08:39:48.438Z,13.10
2022-09-12T08:40:30.392Z,13.23
2022-09-12T08:41:31.092Z,13.45
2022-09-12T08:42:26.641Z,14.40
2022-09-12T08:43:33.120Z,13.48
2022-09-12T08:44:45.835Z,14.05
2022-09-12T08:45:36.876Z,14.02
2022-09-12T08:46:27.195Z,14.32
2022-09-12T08:47:08.853Z,14.57
2022-09-12T08:47:53.291Z,14.55
2022-09-12T08:48:36.123Z,14.00
2022-09-12T08:49:37.677Z,13.90
2022-09-12T08:50:22.278Z,14.38
2022-09-12T08:51:05.168Z,13.82
2022-09-12T08:51:47.259Z,14.10
2022-09-12T08:52:48.201Z,13.57
2022-09-12T08:53:31.592Z,13.13
2022-09-12T08:54:24.002Z,13.55
2022-09-12T08:55:13.505Z,12.07
2022-09-12T08:56:00.205Z,12.90
2022-09-12T08:56:42.094Z,13.07
2022-09-12T08:57:24.355Z,12.90
2022-09-12T08:58:22.701Z,12.55
2022-09-12T08:59:04.411Z,12.32
2022-09-12T08:59:46.518Z,12.75
2022-09-12T09:00:40.670Z,13.10
2022-09-12T09:01:40.671Z,13.30
2022-09-12T09:02:42.090Z,12.27
2022-09-12T09:03:35.797Z,12.50
2022-09-12T09:05:01.602Z,12.65
2022-09-12T09:06:07.282Z,13.10
2022-09-12T09:07:15.078Z,12.63
2022-09-12T09:08:00.267Z,13.43
2022-09-12T09:09:04.896Z,13.23
2022-09-12T09:10:15.001Z,12.25
2022-09-12T09:11:03.506Z,12.60
2022-09-12T09:12:17.077Z,12.63
2022-09-12T09:13:10.157Z,12.40
2022-09-12T09:14:16.187Z,12.32
2022-09-12T09:15:33.886Z,12.23
2022-09-12T09:16:30.846Z,11.68
2022-09-12T09:17:20.130Z,11.90
2022-09-12T09:18:04.823Z,12.73
2022-09-12T09:18:48.351Z,11.77
2022-09-12T09:19:37.474Z,11.68
2022-09-12T09:20:27.328Z,12.50
2022-09-12T09:21:21.945Z,12.43
2022-09-12T09:22:14.406Z,12.00
2022-09-12T09:23:05.174Z,12.75
2022-09-12T09:23:51.048Z,12.65
2022-09-12T09:24:43.653Z,12.15
2022-09-12T09:25:44.424Z,12.10
2022-09-12T09:26:56.459Z,11.15
2022-09-12T09:27:46.881Z,11.80
2022-09-12T09:28:37.678Z,11.23
2022-09-12T09:29:22.757Z,11.20
2022-09-12T09:30:05.409Z,11.05
2022-09-12T09:30:47.124Z,10.82
2022-09-12T09:31:37.217Z,10.10
2022-09-12T09:32:34.323Z,10.93
2022-09-12T09:33:22.417Z,10.90
2022-09-12T09:34:13.849Z,11.02
2022-09-12T09:34:55.609Z,11.15
2022-09-12T09:35:37.859Z,11.20
2022-09-12T09:36:46.760Z,11.05
2022-09-12T09:38:02.129Z,10.20
2022-09-12T09:38:49.384Z,10.80
2022-09-12T09:39:45.501Z,11.27
2022-09-12T09:40:33.958Z,10.68
2022-09-12T09:41:56.067Z,10.70
2022-09-12T09:42:40.872Z,9.38
2022-09-12T09:43:27.445Z,9.93
2022-09-12T09:44:09.567Z,10.60
2022-09-12T09:44:54.350Z,10.15
2022-09-12T09:45:37.510Z,10.07
2022-09-12T09:46:19.381Z,10.40
2022-09-12T09:47:01.612Z,9.97
2022-09-12T09:47:53.107Z,9.35
2022-09-12T09:48:43.864Z,11.40
2022-09-12T09:49:29.278Z,10.32
2022-09-12T09:50:16.552Z,11.18
2022-09-12T09:51:00.622Z,10.43
2022-09-12T09:51:42.901Z,10.13
2022-09-12T09:52:32.057Z,9.90
2022-09-12T09:53:22.650Z,9.45
2022-09-12T09:54:54.828Z,10.00
2022-09-12T09:55:42.965Z,9.80
2022-09-12T09:56:36.237Z,10.13
2022-09-12T09:57:36.115Z,9.68